sensor_id;sensor_type;location;lat;lon;timestamp;P1;durP1;ratioP1;P2;durP2;ratioP2
31594;SDS011;18200;48.726;8.892;2023-06-05T00:00:20;7.32;;;3.33;;
31594;SDS011;18200;48.726;8.892;2023-06-05T00:04:20;5.38;;;2.85;;
31594;SDS011;18200;48.726;8.892;2023-06-05T00:08:21;6.43;;;2.97;;
31594;SDS011;18200;48.726;8.892;2023-06-05T00:12:21;6.90;;;3.15;;
31594;SDS011;18200;48.726;8.892;2023-06-05T00:16:21;4.35;;;2.50;;
31594;SDS011;18200;48.726;8.892;2023-06-05T00:20:22;4.85;;;2.45;;
31594;SDS011;18200;48.726;8.892;2023-06-05T00:24:22;4.18;;;2.75;;
31594;SDS011;18200;48.726;8.892;2023-06-05T00:28:23;6.68;;;2.85;;
31594;SDS011;18200;48.726;8.892;2023-06-05T00:32:24;4.97;;;3.25;;
31594;SDS011;18200;48.726;8.892;2023-06-05T00:36:24;4.97;;;3.15;;
31594;SDS011;18200;48.726;8.892;2023-06-05T00:40:25;5.32;;;2.75;;
31594;SDS011;18200;48.726;8.892;2023-06-05T00:44:25;5.00;;;2.85;;
31594;SDS011;18200;48.726;8.892;2023-06-05T00:48:26;4.57;;;2.83;;
31594;SDS011;18200;48.726;8.892;2023-06-05T00:52:27;6.32;;;2.60;;
31594;SDS011;18200;48.726;8.892;2023-06-05T00:56:28;5.55;;;3.28;;
31594;SDS011;18200;48.726;8.892;2023-06-05T01:00:28;4.88;;;3.00;;
31594;SDS011;18200;48.726;8.892;2023-06-05T01:04:29;4.68;;;2.78;;
31594;SDS011;18200;48.726;8.892;2023-06-05T01:08:31;4.10;;;2.33;;
31594;SDS011;18200;48.726;8.892;2023-06-05T01:17:01;7.75;;;3.17;;
31594;SDS011;18200;48.726;8.892;2023-06-05T01:21:03;8.80;;;3.17;;
31594;SDS011;18200;48.726;8.892;2023-06-05T01:25:11;4.32;;;2.67;;
31594;SDS011;18200;48.726;8.892;2023-06-05T01:29:12;4.50;;;3.20;;
31594;SDS011;18200;48.726;8.892;2023-06-05T01:33:17;7.15;;;3.10;;
31594;SDS011;18200;48.726;8.892;2023-06-05T01:41:36;4.53;;;2.53;;
31594;SDS011;18200;48.726;8.892;2023-06-05T01:45:39;4.50;;;2.83;;
31594;SDS011;18200;48.726;8.892;2023-06-05T01:49:43;5.23;;;3.10;;
31594;SDS011;18200;48.726;8.892;2023-06-05T01:53:43;4.53;;;2.70;;
31594;SDS011;18200;48.726;8.892;2023-06-05T01:57:49;4.03;;;3.05;;
31594;SDS011;18200;48.726;8.892;2023-06-05T02:01:50;4.50;;;2.88;;
31594;SDS011;18200;48.726;8.892;2023-06-05T02:05:51;5.07;;;2.92;;
31594;SDS011;18200;48.726;8.892;2023-06-05T02:09:51;4.65;;;2.95;;
31594;SDS011;18200;48.726;8.892;2023-06-05T02:13:52;4.45;;;2.78;;
31594;SDS011;18200;48.726;8.892;2023-06-05T02:17:53;6.40;;;3.47;;
31594;SDS011;18200;48.726;8.892;2023-06-05T02:21:53;4.55;;;2.85;;
31594;SDS011;18200;48.726;8.892;2023-06-05T02:25:54;4.70;;;2.80;;
31594;SDS011;18200;48.726;8.892;2023-06-05T02:29:55;5.28;;;3.13;;
31594;SDS011;18200;48.726;8.892;2023-06-05T02:33:56;5.07;;;2.65;;
31594;SDS011;18200;48.726;8.892;2023-06-05T02:37:57;5.18;;;3.25;;
31594;SDS011;18200;48.726;8.892;2023-06-05T02:41:57;5.05;;;2.70;;
31594;SDS011;18200;48.726;8.892;2023-06-05T02:45:58;3.85;;;2.80;;
31594;SDS011;18200;48.726;8.892;2023-06-05T02:49:59;5.50;;;2.97;;
31594;SDS011;18200;48.726;8.892;2023-06-05T02:54:01;4.38;;;2.83;;
31594;SDS011;18200;48.726;8.892;2023-06-05T02:58:02;7.68;;;2.80;;
31594;SDS011;18200;48.726;8.892;2023-06-05T03:02:12;5.35;;;3.28;;
31594;SDS011;18200;48.726;8.892;2023-06-05T03:06:15;6.53;;;3.15;;
31594;SDS011;18200;48.726;8.892;2023-06-05T03:10:20;5.55;;;2.92;;
31594;SDS011;18200;48.726;8.892;2023-06-05T03:14:22;6.05;;;3.13;;
31594;SDS011;18200;48.726;8.892;2023-06-05T03:18:23;5.40;;;2.70;;
31594;SDS011;18200;48.726;8.892;2023-06-05T03:22:26;6.18;;;2.65;;
31594;SDS011;18200;48.726;8.892;2023-06-05T03:26:27;5.82;;;3.20;;
31594;SDS011;18200;48.726;8.892;2023-06-05T03:30:28;4.38;;;2.80;;
31594;SDS011;18200;48.726;8.892;2023-06-05T03:34:31;7.60;;;4.13;;
31594;SDS011;18200;48.726;8.892;2023-06-05T03:38:35;4.72;;;3.20;;
31594;SDS011;18200;48.726;8.892;2023-06-05T03:42:35;5.90;;;3.22;;
31594;SDS011;18200;48.726;8.892;2023-06-05T03:46:37;6.78;;;3.60;;
31594;SDS011;18200;48.726;8.892;2023-06-05T03:50:39;4.88;;;2.97;;
31594;SDS011;18200;48.726;8.892;2023-06-05T03:54:41;4.30;;;2.80;;
31594;SDS011;18200;48.726;8.892;2023-06-05T03:58:44;6.40;;;3.15;;
31594;SDS011;18200;48.726;8.892;2023-06-05T04:02:46;4.55;;;2.75;;
31594;SDS011;18200;48.726;8.892;2023-06-05T04:06:49;5.85;;;2.90;;
31594;SDS011;18200;48.726;8.892;2023-06-05T04:10:50;6.22;;;3.20;;
31594;SDS011;18200;48.726;8.892;2023-06-05T04:14:51;8.23;;;3.50;;
31594;SDS011;18200;48.726;8.892;2023-06-05T04:18:51;6.65;;;3.45;;
31594;SDS011;18200;48.726;8.892;2023-06-05T04:22:53;5.18;;;3.22;;
31594;SDS011;18200;48.726;8.892;2023-06-05T04:26:53;5.75;;;3.10;;
31594;SDS011;18200;48.726;8.892;2023-06-05T04:30:54;7.97;;;2.85;;
31594;SDS011;18200;48.726;8.892;2023-06-05T04:34:56;6.63;;;2.85;;
31594;SDS011;18200;48.726;8.892;2023-06-05T04:38:56;5.20;;;2.80;;
31594;SDS011;18200;48.726;8.892;2023-06-05T04:42:56;5.15;;;3.22;;
31594;SDS011;18200;48.726;8.892;2023-06-05T04:46:59;7.38;;;3.63;;
31594;SDS011;18200;48.726;8.892;2023-06-05T04:51:00;5.65;;;3.03;;
31594;SDS011;18200;48.726;8.892;2023-06-05T04:55:02;6.97;;;3.22;;
31594;SDS011;18200;48.726;8.892;2023-06-05T04:59:03;7.63;;;3.30;;
31594;SDS011;18200;48.726;8.892;2023-06-05T05:03:04;7.03;;;3.22;;
31594;SDS011;18200;48.726;8.892;2023-06-05T05:07:05;5.80;;;2.92;;
31594;SDS011;18200;48.726;8.892;2023-06-05T05:11:06;5.50;;;3.22;;
31594;SDS011;18200;48.726;8.892;2023-06-05T05:15:07;9.27;;;3.00;;
31594;SDS011;18200;48.726;8.892;2023-06-05T05:19:08;8.18;;;3.13;;
31594;SDS011;18200;48.726;8.892;2023-06-05T05:23:09;4.18;;;3.03;;
31594;SDS011;18200;48.726;8.892;2023-06-05T05:27:10;5.18;;;3.25;;
31594;SDS011;18200;48.726;8.892;2023-06-05T05:31:11;5.95;;;3.13;;
31594;SDS011;18200;48.726;8.892;2023-06-05T05:35:11;6.18;;;3.30;;
31594;SDS011;18200;48.726;8.892;2023-06-05T05:39:12;8.57;;;3.60;;
31594;SDS011;18200;48.726;8.892;2023-06-05T05:43:12;7.30;;;3.33;;
31594;SDS011;18200;48.726;8.892;2023-06-05T05:47:13;7.50;;;3.17;;
31594;SDS011;18200;48.726;8.892;2023-06-05T05:51:13;7.60;;;3.20;;
31594;SDS011;18200;48.726;8.892;2023-06-05T05:55:14;8.55;;;2.97;;
31594;SDS011;18200;48.726;8.892;2023-06-05T05:59:14;8.25;;;3.78;;
31594;SDS011;18200;48.726;8.892;2023-06-05T06:03:16;5.45;;;2.80;;
31594;SDS011;18200;48.726;8.892;2023-06-05T06:07:17;8.50;;;3.85;;
31594;SDS011;18200;48.726;8.892;2023-06-05T06:11:18;8.30;;;3.17;;
31594;SDS011;18200;48.726;8.892;2023-06-05T06:15:18;5.72;;;3.22;;
31594;SDS011;18200;48.726;8.892;2023-06-05T06:19:19;10.57;;;3.85;;
31594;SDS011;18200;48.726;8.892;2023-06-05T06:23:23;8.00;;;3.20;;
31594;SDS011;18200;48.726;8.892;2023-06-05T06:27:23;7.13;;;2.92;;
31594;SDS011;18200;48.726;8.892;2023-06-05T06:31:24;4.45;;;2.83;;
31594;SDS011;18200;48.726;8.892;2023-06-05T06:35:25;8.95;;;3.10;;
31594;SDS011;18200;48.726;8.892;2023-06-05T06:39:26;5.70;;;2.90;;
31594;SDS011;18200;48.726;8.892;2023-06-05T06:43:26;5.20;;;3.15;;
31594;SDS011;18200;48.726;8.892;2023-06-05T06:47:35;10.63;;;2.90;;
31594;SDS011;18200;48.726;8.892;2023-06-05T06:51:35;17.02;;;3.53;;
31594;SDS011;18200;48.726;8.892;2023-06-05T06:55:35;5.13;;;2.88;;
31594;SDS011;18200;48.726;8.892;2023-06-05T06:59:36;9.77;;;3.33;;
31594;SDS011;18200;48.726;8.892;2023-06-05T07:03:37;10.70;;;3.25;;
31594;SDS011;18200;48.726;8.892;2023-06-05T07:07:38;12.52;;;3.72;;
31594;SDS011;18200;48.726;8.892;2023-06-05T07:11:38;8.48;;;2.90;;
31594;SDS011;18200;48.726;8.892;2023-06-05T07:15:39;8.43;;;3.35;;
31594;SDS011;18200;48.726;8.892;2023-06-05T07:19:39;5.95;;;3.20;;
31594;SDS011;18200;48.726;8.892;2023-06-05T07:23:39;7.75;;;3.97;;
31594;SDS011;18200;48.726;8.892;2023-06-05T07:27:40;6.00;;;3.30;;
31594;SDS011;18200;48.726;8.892;2023-06-05T07:31:40;7.88;;;3.40;;
31594;SDS011;18200;48.726;8.892;2023-06-05T07:35:42;9.50;;;3.65;;
31594;SDS011;18200;48.726;8.892;2023-06-05T07:39:42;6.85;;;3.10;;
31594;SDS011;18200;48.726;8.892;2023-06-05T07:43:43;8.82;;;3.55;;
31594;SDS011;18200;48.726;8.892;2023-06-05T07:47:43;5.97;;;3.50;;
31594;SDS011;18200;48.726;8.892;2023-06-05T07:51:44;11.75;;;4.05;;
31594;SDS011;18200;48.726;8.892;2023-06-05T07:55:48;9.40;;;4.30;;
31594;SDS011;18200;48.726;8.892;2023-06-05T07:59:48;10.52;;;3.67;;
31594;SDS011;18200;48.726;8.892;2023-06-05T08:03:49;11.50;;;3.65;;
31594;SDS011;18200;48.726;8.892;2023-06-05T08:07:50;6.40;;;3.70;;
31594;SDS011;18200;48.726;8.892;2023-06-05T08:11:50;9.07;;;3.63;;
31594;SDS011;18200;48.726;8.892;2023-06-05T08:15:51;11.40;;;4.00;;
31594;SDS011;18200;48.726;8.892;2023-06-05T08:19:51;9.70;;;3.80;;
31594;SDS011;18200;48.726;8.892;2023-06-05T08:23:51;6.65;;;3.47;;
31594;SDS011;18200;48.726;8.892;2023-06-05T08:27:52;12.52;;;4.45;;
31594;SDS011;18200;48.726;8.892;2023-06-05T08:31:53;11.73;;;4.60;;
31594;SDS011;18200;48.726;8.892;2023-06-05T08:35:53;7.57;;;4.22;;
31594;SDS011;18200;48.726;8.892;2023-06-05T08:39:54;7.15;;;4.07;;
31594;SDS011;18200;48.726;8.892;2023-06-05T08:43:58;8.80;;;4.55;;
31594;SDS011;18200;48.726;8.892;2023-06-05T08:47:59;8.32;;;3.78;;
31594;SDS011;18200;48.726;8.892;2023-06-05T08:56:06;9.15;;;4.80;;
31594;SDS011;18200;48.726;8.892;2023-06-05T09:00:08;11.50;;;5.07;;
31594;SDS011;18200;48.726;8.892;2023-06-05T09:04:12;12.90;;;4.68;;
31594;SDS011;18200;48.726;8.892;2023-06-05T09:08:13;11.20;;;5.43;;
31594;SDS011;18200;48.726;8.892;2023-06-05T09:12:15;10.10;;;5.70;;
31594;SDS011;18200;48.726;8.892;2023-06-05T09:16:31;10.70;;;5.32;;
31594;SDS011;18200;48.726;8.892;2023-06-05T09:20:37;9.70;;;5.47;;
31594;SDS011;18200;48.726;8.892;2023-06-05T09:24:39;13.35;;;6.18;;
31594;SDS011;18200;48.726;8.892;2023-06-05T09:28:53;9.77;;;5.60;;
31594;SDS011;18200;48.726;8.892;2023-06-05T09:32:54;9.75;;;6.43;;
31594;SDS011;18200;48.726;8.892;2023-06-05T09:36:55;13.70;;;6.88;;
31594;SDS011;18200;48.726;8.892;2023-06-05T09:41:15;9.73;;;5.78;;
31594;SDS011;18200;48.726;8.892;2023-06-05T09:45:18;9.18;;;6.07;;
31594;SDS011;18200;48.726;8.892;2023-06-05T09:49:19;11.07;;;6.20;;
31594;SDS011;18200;48.726;8.892;2023-06-05T09:53:47;11.00;;;6.40;;
31594;SDS011;18200;48.726;8.892;2023-06-05T09:57:49;8.35;;;5.63;;
31594;SDS011;18200;48.726;8.892;2023-06-05T10:01:51;8.48;;;6.07;;
31594;SDS011;18200;48.726;8.892;2023-06-05T10:05:52;11.00;;;5.90;;
31594;SDS011;18200;48.726;8.892;2023-06-05T10:09:54;21.25;;;6.50;;
31594;SDS011;18200;48.726;8.892;2023-06-05T10:13:56;10.05;;;5.93;;
31594;SDS011;18200;48.726;8.892;2023-06-05T10:17:59;10.35;;;5.78;;
31594;SDS011;18200;48.726;8.892;2023-06-05T10:22:00;12.98;;;5.57;;
31594;SDS011;18200;48.726;8.892;2023-06-05T10:26:01;12.18;;;5.90;;
31594;SDS011;18200;48.726;8.892;2023-06-05T10:38:28;8.75;;;5.72;;
31594;SDS011;18200;48.726;8.892;2023-06-05T10:42:30;9.50;;;6.07;;
31594;SDS011;18200;48.726;8.892;2023-06-05T10:46:32;7.88;;;5.57;;
31594;SDS011;18200;48.726;8.892;2023-06-05T10:50:34;12.10;;;5.70;;
31594;SDS011;18200;48.726;8.892;2023-06-05T10:58:35;8.23;;;5.03;;
31594;SDS011;18200;48.726;8.892;2023-06-05T11:02:39;9.65;;;5.20;;
31594;SDS011;18200;48.726;8.892;2023-06-05T11:11:22;9.60;;;5.55;;
31594;SDS011;18200;48.726;8.892;2023-06-05T11:23:23;11.90;;;5.90;;
31594;SDS011;18200;48.726;8.892;2023-06-05T11:27:40;11.45;;;5.28;;
31594;SDS011;18200;48.726;8.892;2023-06-05T11:31:43;8.25;;;5.22;;
31594;SDS011;18200;48.726;8.892;2023-06-05T11:35:45;8.20;;;5.40;;
31594;SDS011;18200;48.726;8.892;2023-06-05T11:39:47;10.02;;;5.15;;
31594;SDS011;18200;48.726;8.892;2023-06-05T11:43:47;8.38;;;5.00;;
31594;SDS011;18200;48.726;8.892;2023-06-05T11:47:48;10.65;;;5.10;;
31594;SDS011;18200;48.726;8.892;2023-06-05T11:51:48;8.17;;;5.20;;
31594;SDS011;18200;48.726;8.892;2023-06-05T11:55:48;8.18;;;5.30;;
31594;SDS011;18200;48.726;8.892;2023-06-05T11:59:49;6.95;;;4.78;;
31594;SDS011;18200;48.726;8.892;2023-06-05T12:04:01;8.48;;;4.30;;
31594;SDS011;18200;48.726;8.892;2023-06-05T12:08:22;7.80;;;5.00;;
31594;SDS011;18200;48.726;8.892;2023-06-05T12:12:27;7.75;;;4.70;;
31594;SDS011;18200;48.726;8.892;2023-06-05T12:16:31;7.47;;;4.93;;
31594;SDS011;18200;48.726;8.892;2023-06-05T12:20:39;9.25;;;5.13;;
31594;SDS011;18200;48.726;8.892;2023-06-05T12:24:40;7.45;;;4.25;;
31594;SDS011;18200;48.726;8.892;2023-06-05T12:28:42;13.90;;;5.10;;
31594;SDS011;18200;48.726;8.892;2023-06-05T12:32:44;6.70;;;4.40;;
31594;SDS011;18200;48.726;8.892;2023-06-05T12:36:44;5.60;;;3.40;;
31594;SDS011;18200;48.726;8.892;2023-06-05T12:40:47;7.97;;;3.65;;
31594;SDS011;18200;48.726;8.892;2023-06-05T12:44:47;8.27;;;4.00;;
31594;SDS011;18200;48.726;8.892;2023-06-05T12:48:48;7.78;;;4.15;;
31594;SDS011;18200;48.726;8.892;2023-06-05T12:52:49;8.70;;;4.28;;
31594;SDS011;18200;48.726;8.892;2023-06-05T12:56:50;6.68;;;3.83;;
31594;SDS011;18200;48.726;8.892;2023-06-05T13:00:50;10.05;;;4.28;;
31594;SDS011;18200;48.726;8.892;2023-06-05T13:04:52;7.90;;;4.10;;
31594;SDS011;18200;48.726;8.892;2023-06-05T13:08:52;6.38;;;3.92;;
31594;SDS011;18200;48.726;8.892;2023-06-05T13:12:53;6.75;;;3.95;;
31594;SDS011;18200;48.726;8.892;2023-06-05T13:16:53;8.73;;;4.18;;
31594;SDS011;18200;48.726;8.892;2023-06-05T13:20:54;7.60;;;4.13;;
31594;SDS011;18200;48.726;8.892;2023-06-05T13:24:54;6.93;;;3.88;;
31594;SDS011;18200;48.726;8.892;2023-06-05T13:28:54;8.45;;;3.95;;
31594;SDS011;18200;48.726;8.892;2023-06-05T13:32:55;10.38;;;4.15;;
31594;SDS011;18200;48.726;8.892;2023-06-05T13:36:55;5.15;;;3.47;;
31594;SDS011;18200;48.726;8.892;2023-06-05T13:40:57;8.00;;;4.18;;
31594;SDS011;18200;48.726;8.892;2023-06-05T13:44:57;8.30;;;4.10;;
31594;SDS011;18200;48.726;8.892;2023-06-05T13:48:57;8.25;;;4.10;;
31594;SDS011;18200;48.726;8.892;2023-06-05T13:53:00;9.05;;;3.83;;
31594;SDS011;18200;48.726;8.892;2023-06-05T13:57:00;8.15;;;4.22;;
31594;SDS011;18200;48.726;8.892;2023-06-05T14:01:01;9.10;;;4.18;;
31594;SDS011;18200;48.726;8.892;2023-06-05T14:05:01;6.43;;;4.30;;
31594;SDS011;18200;48.726;8.892;2023-06-05T14:09:01;7.57;;;3.83;;
31594;SDS011;18200;48.726;8.892;2023-06-05T14:13:02;7.60;;;4.07;;
31594;SDS011;18200;48.726;8.892;2023-06-05T14:17:03;8.05;;;4.60;;
31594;SDS011;18200;48.726;8.892;2023-06-05T14:21:04;8.85;;;4.13;;
31594;SDS011;18200;48.726;8.892;2023-06-05T14:25:04;7.82;;;4.70;;
31594;SDS011;18200;48.726;8.892;2023-06-05T14:29:06;5.07;;;4.30;;
31594;SDS011;18200;48.726;8.892;2023-06-05T14:33:06;10.07;;;4.85;;
31594;SDS011;18200;48.726;8.892;2023-06-05T14:37:06;10.27;;;5.00;;
31594;SDS011;18200;48.726;8.892;2023-06-05T14:41:07;11.82;;;4.88;;
31594;SDS011;18200;48.726;8.892;2023-06-05T14:45:07;10.60;;;4.97;;
31594;SDS011;18200;48.726;8.892;2023-06-05T14:49:08;7.38;;;4.63;;
31594;SDS011;18200;48.726;8.892;2023-06-05T14:53:08;11.67;;;4.37;;
31594;SDS011;18200;48.726;8.892;2023-06-05T14:57:09;8.07;;;4.10;;
31594;SDS011;18200;48.726;8.892;2023-06-05T15:01:09;8.90;;;4.30;;
31594;SDS011;18200;48.726;8.892;2023-06-05T15:05:10;9.20;;;5.43;;
31594;SDS011;18200;48.726;8.892;2023-06-05T15:09:10;7.78;;;4.28;;
31594;SDS011;18200;48.726;8.892;2023-06-05T15:13:10;10.40;;;4.70;;
31594;SDS011;18200;48.726;8.892;2023-06-05T15:17:11;7.60;;;4.50;;
31594;SDS011;18200;48.726;8.892;2023-06-05T15:21:11;7.22;;;4.22;;
31594;SDS011;18200;48.726;8.892;2023-06-05T15:25:11;6.80;;;4.63;;
31594;SDS011;18200;48.726;8.892;2023-06-05T15:29:12;8.15;;;4.68;;
31594;SDS011;18200;48.726;8.892;2023-06-05T15:33:13;5.60;;;4.07;;
31594;SDS011;18200;48.726;8.892;2023-06-05T15:37:15;5.30;;;4.05;;
31594;SDS011;18200;48.726;8.892;2023-06-05T15:41:15;8.98;;;4.65;;
31594;SDS011;18200;48.726;8.892;2023-06-05T15:45:15;9.10;;;4.55;;
31594;SDS011;18200;48.726;8.892;2023-06-05T15:49:16;5.95;;;4.43;;
31594;SDS011;18200;48.726;8.892;2023-06-05T15:53:16;8.65;;;4.80;;
31594;SDS011;18200;48.726;8.892;2023-06-05T15:57:17;5.82;;;4.00;;
31594;SDS011;18200;48.726;8.892;2023-06-05T16:01:17;7.83;;;3.73;;
31594;SDS011;18200;48.726;8.892;2023-06-05T16:05:18;5.25;;;3.75;;
31594;SDS011;18200;48.726;8.892;2023-06-05T16:09:18;6.22;;;4.30;;
31594;SDS011;18200;48.726;8.892;2023-06-05T16:13:18;9.85;;;3.83;;
31594;SDS011;18200;48.726;8.892;2023-06-05T16:17:21;6.95;;;3.67;;
31594;SDS011;18200;48.726;8.892;2023-06-05T16:21:21;23.50;;;6.95;;
31594;SDS011;18200;48.726;8.892;2023-06-05T16:25:22;7.72;;;3.72;;
31594;SDS011;18200;48.726;8.892;2023-06-05T16:29:22;9.23;;;3.78;;
31594;SDS011;18200;48.726;8.892;2023-06-05T16:33:22;7.65;;;3.75;;
31594;SDS011;18200;48.726;8.892;2023-06-05T16:37:23;9.80;;;4.43;;
31594;SDS011;18200;48.726;8.892;2023-06-05T16:41:23;9.68;;;4.75;;
31594;SDS011;18200;48.726;8.892;2023-06-05T16:45:24;9.88;;;4.10;;
31594;SDS011;18200;48.726;8.892;2023-06-05T16:49:24;8.13;;;4.00;;
31594;SDS011;18200;48.726;8.892;2023-06-05T16:53:25;16.50;;;5.22;;
31594;SDS011;18200;48.726;8.892;2023-06-05T16:57:25;11.75;;;3.50;;
31594;SDS011;18200;48.726;8.892;2023-06-05T17:01:26;6.97;;;3.37;;
31594;SDS011;18200;48.726;8.892;2023-06-05T17:05:26;4.93;;;3.07;;
31594;SDS011;18200;48.726;8.892;2023-06-05T17:09:26;6.03;;;3.42;;
31594;SDS011;18200;48.726;8.892;2023-06-05T17:13:27;5.88;;;3.35;;
31594;SDS011;18200;48.726;8.892;2023-06-05T17:17:27;5.70;;;3.75;;
31594;SDS011;18200;48.726;8.892;2023-06-05T17:21:28;5.88;;;3.83;;
31594;SDS011;18200;48.726;8.892;2023-06-05T17:25:28;8.10;;;3.30;;
31594;SDS011;18200;48.726;8.892;2023-06-05T17:29:28;6.50;;;3.58;;
31594;SDS011;18200;48.726;8.892;2023-06-05T17:33:29;6.32;;;3.40;;
31594;SDS011;18200;48.726;8.892;2023-06-05T17:37:29;8.10;;;3.78;;
31594;SDS011;18200;48.726;8.892;2023-06-05T17:41:30;6.93;;;3.40;;
31594;SDS011;18200;48.726;8.892;2023-06-05T17:45:30;5.05;;;3.50;;
31594;SDS011;18200;48.726;8.892;2023-06-05T17:49:33;4.97;;;3.38;;
31594;SDS011;18200;48.726;8.892;2023-06-05T17:53:34;5.82;;;2.95;;
31594;SDS011;18200;48.726;8.892;2023-06-05T17:57:34;6.72;;;3.50;;
31594;SDS011;18200;48.726;8.892;2023-06-05T18:01:34;6.32;;;3.08;;
31594;SDS011;18200;48.726;8.892;2023-06-05T18:05:35;4.22;;;3.17;;
31594;SDS011;18200;48.726;8.892;2023-06-05T18:09:35;7.97;;;3.63;;
31594;SDS011;18200;48.726;8.892;2023-06-05T18:13:36;4.50;;;3.53;;
31594;SDS011;18200;48.726;8.892;2023-06-05T18:17:37;5.40;;;3.60;;
31594;SDS011;18200;48.726;8.892;2023-06-05T18:21:38;6.03;;;3.30;;
31594;SDS011;18200;48.726;8.892;2023-06-05T18:25:38;8.80;;;3.40;;
31594;SDS011;18200;48.726;8.892;2023-06-05T18:29:39;9.63;;;3.97;;
31594;SDS011;18200;48.726;8.892;2023-06-05T18:33:40;5.90;;;3.40;;
31594;SDS011;18200;48.726;8.892;2023-06-05T18:37:40;6.15;;;3.63;;
31594;SDS011;18200;48.726;8.892;2023-06-05T18:41:41;7.40;;;3.45;;
31594;SDS011;18200;48.726;8.892;2023-06-05T18:45:42;5.47;;;3.35;;
31594;SDS011;18200;48.726;8.892;2023-06-05T18:49:43;7.97;;;3.42;;
31594;SDS011;18200;48.726;8.892;2023-06-05T18:53:45;6.18;;;3.35;;
31594;SDS011;18200;48.726;8.892;2023-06-05T18:57:45;10.88;;;3.53;;
31594;SDS011;18200;48.726;8.892;2023-06-05T19:01:46;7.05;;;3.70;;
31594;SDS011;18200;48.726;8.892;2023-06-05T19:05:46;8.93;;;3.63;;
31594;SDS011;18200;48.726;8.892;2023-06-05T19:09:46;8.45;;;3.40;;
31594;SDS011;18200;48.726;8.892;2023-06-05T19:13:47;8.38;;;3.58;;
31594;SDS011;18200;48.726;8.892;2023-06-05T19:17:47;6.32;;;3.20;;
31594;SDS011;18200;48.726;8.892;2023-06-05T19:21:47;16.48;;;3.80;;
31594;SDS011;18200;48.726;8.892;2023-06-05T19:25:48;5.78;;;3.70;;
31594;SDS011;18200;48.726;8.892;2023-06-05T19:29:50;5.97;;;3.40;;
31594;SDS011;18200;48.726;8.892;2023-06-05T19:33:50;9.25;;;3.40;;
31594;SDS011;18200;48.726;8.892;2023-06-05T19:37:51;7.40;;;3.50;;
31594;SDS011;18200;48.726;8.892;2023-06-05T19:41:51;5.25;;;3.53;;
31594;SDS011;18200;48.726;8.892;2023-06-05T19:45:51;5.18;;;3.33;;
31594;SDS011;18200;48.726;8.892;2023-06-05T19:49:52;9.25;;;3.78;;
31594;SDS011;18200;48.726;8.892;2023-06-05T19:53:52;7.18;;;3.95;;
31594;SDS011;18200;48.726;8.892;2023-06-05T19:57:52;7.05;;;3.50;;
31594;SDS011;18200;48.726;8.892;2023-06-05T20:01:54;5.63;;;3.35;;
31594;SDS011;18200;48.726;8.892;2023-06-05T20:05:54;4.18;;;3.38;;
31594;SDS011;18200;48.726;8.892;2023-06-05T20:09:55;5.50;;;3.45;;
31594;SDS011;18200;48.726;8.892;2023-06-05T20:13:56;5.65;;;3.47;;
31594;SDS011;18200;48.726;8.892;2023-06-05T20:17:56;9.65;;;4.20;;
31594;SDS011;18200;48.726;8.892;2023-06-05T20:21:57;6.10;;;3.25;;
31594;SDS011;18200;48.726;8.892;2023-06-05T20:26:02;6.97;;;3.65;;
31594;SDS011;18200;48.726;8.892;2023-06-05T20:30:06;7.00;;;3.63;;
31594;SDS011;18200;48.726;8.892;2023-06-05T20:34:07;5.38;;;3.70;;
31594;SDS011;18200;48.726;8.892;2023-06-05T20:38:07;9.68;;;3.60;;
31594;SDS011;18200;48.726;8.892;2023-06-05T20:42:08;6.45;;;3.75;;
31594;SDS011;18200;48.726;8.892;2023-06-05T20:46:09;8.23;;;3.85;;
31594;SDS011;18200;48.726;8.892;2023-06-05T20:50:10;7.28;;;3.90;;
31594;SDS011;18200;48.726;8.892;2023-06-05T20:54:10;8.35;;;4.55;;
31594;SDS011;18200;48.726;8.892;2023-06-05T20:58:10;8.77;;;4.47;;
31594;SDS011;18200;48.726;8.892;2023-06-05T21:02:11;8.25;;;4.88;;
31594;SDS011;18200;48.726;8.892;2023-06-05T21:06:11;12.38;;;5.22;;
31594;SDS011;18200;48.726;8.892;2023-06-05T21:10:12;6.80;;;4.70;;
31594;SDS011;18200;48.726;8.892;2023-06-05T21:14:12;9.27;;;4.90;;
31594;SDS011;18200;48.726;8.892;2023-06-05T21:18:12;7.80;;;4.78;;
31594;SDS011;18200;48.726;8.892;2023-06-05T21:22:13;8.52;;;4.65;;
31594;SDS011;18200;48.726;8.892;2023-06-05T21:26:13;7.25;;;4.88;;
31594;SDS011;18200;48.726;8.892;2023-06-05T21:30:14;6.00;;;4.60;;
31594;SDS011;18200;48.726;8.892;2023-06-05T21:34:14;5.47;;;4.20;;
31594;SDS011;18200;48.726;8.892;2023-06-05T21:38:14;8.55;;;5.18;;
31594;SDS011;18200;48.726;8.892;2023-06-05T21:42:15;7.13;;;4.22;;
31594;SDS011;18200;48.726;8.892;2023-06-05T21:46:16;6.25;;;3.95;;
31594;SDS011;18200;48.726;8.892;2023-06-05T21:50:16;7.05;;;4.43;;
31594;SDS011;18200;48.726;8.892;2023-06-05T21:54:17;5.00;;;4.20;;
31594;SDS011;18200;48.726;8.892;2023-06-05T21:58:17;6.40;;;3.95;;
31594;SDS011;18200;48.726;8.892;2023-06-05T22:02:17;9.05;;;4.20;;
31594;SDS011;18200;48.726;8.892;2023-06-05T22:06:18;4.57;;;3.88;;
31594;SDS011;18200;48.726;8.892;2023-06-05T22:10:18;4.75;;;4.25;;
31594;SDS011;18200;48.726;8.892;2023-06-05T22:14:19;4.90;;;4.03;;
31594;SDS011;18200;48.726;8.892;2023-06-05T22:18:25;5.93;;;4.50;;
31594;SDS011;18200;48.726;8.892;2023-06-05T22:22:28;7.50;;;4.45;;
31594;SDS011;18200;48.726;8.892;2023-06-05T22:26:28;6.50;;;4.57;;
31594;SDS011;18200;48.726;8.892;2023-06-05T22:30:29;8.35;;;4.68;;
31594;SDS011;18200;48.726;8.892;2023-06-05T22:34:29;7.07;;;4.30;;
31594;SDS011;18200;48.726;8.892;2023-06-05T22:38:32;5.57;;;4.47;;
31594;SDS011;18200;48.726;8.892;2023-06-05T22:42:32;6.78;;;4.57;;
31594;SDS011;18200;48.726;8.892;2023-06-05T22:46:33;7.35;;;4.20;;
31594;SDS011;18200;48.726;8.892;2023-06-05T22:50:33;6.93;;;4.55;;
31594;SDS011;18200;48.726;8.892;2023-06-05T22:54:37;7.53;;;4.70;;
31594;SDS011;18200;48.726;8.892;2023-06-05T22:58:37;5.45;;;4.32;;
31594;SDS011;18200;48.726;8.892;2023-06-05T23:02:37;8.07;;;5.20;;
31594;SDS011;18200;48.726;8.892;2023-06-05T23:06:38;5.82;;;4.65;;
31594;SDS011;18200;48.726;8.892;2023-06-05T23:10:41;6.78;;;5.03;;
31594;SDS011;18200;48.726;8.892;2023-06-05T23:14:42;6.57;;;4.70;;
31594;SDS011;18200;48.726;8.892;2023-06-05T23:18:42;6.45;;;5.00;;
31594;SDS011;18200;48.726;8.892;2023-06-05T23:22:43;6.32;;;5.00;;
31594;SDS011;18200;48.726;8.892;2023-06-05T23:26:43;6.72;;;5.43;;
31594;SDS011;18200;48.726;8.892;2023-06-05T23:30:43;7.32;;;4.65;;
31594;SDS011;18200;48.726;8.892;2023-06-05T23:34:44;9.10;;;5.20;;
31594;SDS011;18200;48.726;8.892;2023-06-05T23:38:45;6.95;;;5.05;;
31594;SDS011;18200;48.726;8.892;2023-06-05T23:42:45;5.78;;;4.72;;
31594;SDS011;18200;48.726;8.892;2023-06-05T23:46:49;6.63;;;4.90;;
31594;SDS011;18200;48.726;8.892;2023-06-05T23:50:49;5.53;;;4.97;;
31594;SDS011;18200;48.726;8.892;2023-06-05T23:54:50;6.88;;;5.07;;
31594;SDS011;18200;48.726;8.892;2023-06-05T23:58:51;10.90;;;5.40;;
